Time;durP1;ratioP1;P1;durP2;ratioP2;P2;SDS_P1;SDS_P2;PMS_P1;PMS_P2;Temp;Humidity;BMP_temperature;BMP_pressure;BME280_temperature;BME280_humidity;BME280_pressure;Samples;Min_cycle;Max_cycle;Signal;HPM_P1;HPM_P2
2022/01/05 00:01:43;;;;;;;0.50;0.50;;;;;;;;;;5026423;27;92478;-62
2022/01/05 00:04:09;;;;;;;0.52;0.52;;;;;;;;;;5033214;27;91834;-61
2022/01/05 00:06:35;;;;;;;1.20;0.60;;;;;;;;;;5025949;27;92329;-62
2022/01/05 00:09:02;;;;;;;0.88;0.70;;;;;;;;;;5025106;28;92892;-61
2022/01/05 00:11:28;;;;;;;0.98;0.52;;;;;;;;;;5026031;27;94747;-62
2022/01/05 00:13:56;;;;;;;0.70;0.40;;;;;;;;;;5011931;28;92391;-61
2022/01/05 00:16:22;;;;;;;1.33;0.57;;;;;;;;;;5012622;28;94207;-62
2022/01/05 00:18:49;;;;;;;1.17;0.73;;;;;;;;;;5013233;28;93599;-61
2022/01/05 00:21:15;;;;;;;0.60;0.52;;;;;;;;;;5021243;28;92443;-61
2022/01/05 00:23:43;;;;;;;1.35;0.80;;;;;;;;;;5028921;28;92902;-62
2022/01/05 00:26:09;;;;;;;1.02;0.55;;;;;;;;;;5016202;27;93374;-61
2022/01/05 00:28:36;;;;;;;0.85;0.70;;;;;;;;;;5010846;28;91854;-61
2022/01/05 00:31:02;;;;;;;1.75;0.70;;;;;;;;;;5011176;28;92363;-62
2022/01/05 00:33:28;;;;;;;1.80;0.75;;;;;;;;;;4995826;28;92440;-62
2022/01/05 00:35:54;;;;;;;1.73;0.80;;;;;;;;;;5022334;28;94891;-61
2022/01/05 00:38:21;;;;;;;1.75;0.57;;;;;;;;;;5012462;28;92388;-61
2022/01/05 00:40:47;;;;;;;1.10;0.50;;;;;;;;;;5023830;28;92337;-62
2022/01/05 00:43:13;;;;;;;0.73;0.65;;;;;;;;;;5031204;27;92783;-62
2022/01/05 00:45:39;;;;;;;0.63;0.50;;;;;;;;;;5017795;27;93480;-61
2022/01/05 00:48:06;;;;;;;0.73;0.55;;;;;;;;;;5014562;28;92444;-61
2022/01/05 00:50:32;;;;;;;1.58;0.55;;;;;;;;;;5012132;28;92534;-61
2022/01/05 00:53:00;;;;;;;0.40;0.40;;;;;;;;;;5011667;28;91580;-62
2022/01/05 00:55:27;;;;;;;0.93;0.60;;;;;;;;;;5012940;28;92391;-61
2022/01/05 00:57:54;;;;;;;0.68;0.43;;;;;;;;;;5024142;27;92937;-61
2022/01/05 01:00:20;;;;;;;0.77;0.60;;;;;;;;;;5009873;28;94780;-62
2022/01/05 01:02:46;;;;;;;1.75;0.70;;;;;;;;;;5013484;28;95260;-62
2022/01/05 01:05:14;;;;;;;0.60;0.60;;;;;;;;;;5018693;28;93925;-61
2022/01/05 01:07:41;;;;;;;0.90;0.60;;;;;;;;;;5018322;28;93015;-62
2022/01/05 01:10:07;;;;;;;1.20;0.63;;;;;;;;;;5029667;27;93202;-61
2022/01/05 01:12:34;;;;;;;1.25;0.47;;;;;;;;;;5015008;28;92832;-62
2022/01/05 01:15:04;;;;;;;2.47;0.57;;;;;;;;;;5020874;28;94257;-61
2022/01/05 01:17:31;;;;;;;1.52;0.50;;;;;;;;;;5033040;27;93909;-62
2022/01/05 01:19:57;;;;;;;1.23;0.68;;;;;;;;;;5016747;27;93432;-62
2022/01/05 01:22:24;;;;;;;0.88;0.70;;;;;;;;;;5015062;28;93065;-62
2022/01/05 01:24:50;;;;;;;0.75;0.50;;;;;;;;;;5017873;28;95420;-62
2022/01/05 01:27:16;;;;;;;1.25;0.55;;;;;;;;;;5018527;27;92363;-62
2022/01/05 01:29:43;;;;;;;1.75;0.65;;;;;;;;;;5035555;28;92365;-61
2022/01/05 01:32:09;;;;;;;2.15;0.55;;;;;;;;;;5034737;27;92346;-62
2022/01/05 01:34:35;;;;;;;0.70;0.50;;;;;;;;;;5030142;27;93777;-61
2022/01/05 01:37:02;;;;;;;0.70;0.50;;;;;;;;;;5032453;27;94581;-61
2022/01/05 01:39:28;;;;;;;1.02;0.55;;;;;;;;;;5026563;27;92392;-62
2022/01/05 01:41:54;;;;;;;1.33;0.70;;;;;;;;;;5017608;28;91609;-61
2022/01/05 01:44:21;;;;;;;1.02;0.60;;;;;;;;;;5033241;27;93220;-61
2022/01/05 01:46:47;;;;;;;0.55;0.47;;;;;;;;;;5034494;27;92452;-62
2022/01/05 01:49:13;;;;;;;0.80;0.60;;;;;;;;;;5014834;27;94980;-61
2022/01/05 01:51:40;;;;;;;0.43;0.40;;;;;;;;;;5017124;28;93421;-62
2022/01/05 01:54:07;;;;;;;1.48;0.60;;;;;;;;;;5013162;28;92342;-61
2022/01/05 01:56:34;;;;;;;1.17;0.80;;;;;;;;;;5045217;27;93523;-62
2022/01/05 01:59:01;;;;;;;0.80;0.63;;;;;;;;;;5013742;28;92444;-61
2022/01/05 02:01:27;;;;;;;1.05;0.60;;;;;;;;;;5014973;28;92418;-61
2022/01/05 02:03:54;;;;;;;0.98;0.52;;;;;;;;;;5017883;28;93740;-61
2022/01/05 02:06:20;;;;;;;0.98;0.60;;;;;;;;;;5018429;27;91825;-61
2022/01/05 02:08:46;;;;;;;0.63;0.57;;;;;;;;;;5012954;27;92946;-61
2022/01/05 02:11:13;;;;;;;1.05;0.60;;;;;;;;;;5026707;28;93270;-61
2022/01/05 02:13:40;;;;;;;0.85;0.60;;;;;;;;;;5034552;27;94840;-62
2022/01/05 02:16:07;;;;;;;0.90;0.60;;;;;;;;;;5018886;27;93225;-62
2022/01/05 02:21:10;;;;;;;0.50;0.50;;;;;;;;;;5021259;28;94052;-62
2022/01/05 02:23:37;;;;;;;0.57;0.50;;;;;;;;;;5012588;28;92413;-62
2022/01/05 02:26:04;;;;;;;1.30;0.70;;;;;;;;;;5025851;28;92458;-61
2022/01/05 02:28:30;;;;;;;0.40;0.40;;;;;;;;;;5030303;27;92318;-62
2022/01/05 02:30:57;;;;;;;0.50;0.50;;;;;;;;;;5033338;27;91694;-61
2022/01/05 02:33:24;;;;;;;0.77;0.43;;;;;;;;;;5032802;27;92521;-62
2022/01/05 02:35:51;;;;;;;0.40;0.30;;;;;;;;;;5018457;28;94022;-62
2022/01/05 02:38:18;;;;;;;0.90;0.65;;;;;;;;;;5031096;27;94885;-62
2022/01/05 02:40:44;;;;;;;1.42;0.60;;;;;;;;;;5017255;27;95240;-62
2022/01/05 02:43:10;;;;;;;1.27;0.60;;;;;;;;;;5023130;28;93056;-62
2022/01/05 02:45:36;;;;;;;0.55;0.40;;;;;;;;;;5032598;27;92290;-62
2022/01/05 02:48:03;;;;;;;0.55;0.40;;;;;;;;;;5032795;27;92483;-62
2022/01/05 02:50:30;;;;;;;0.70;0.43;;;;;;;;;;5028463;27;92744;-61
2022/01/05 02:52:56;;;;;;;1.20;0.60;;;;;;;;;;5013190;28;92391;-61
2022/01/05 02:55:22;;;;;;;0.60;0.45;;;;;;;;;;5022396;28;94192;-62
2022/01/05 02:57:48;;;;;;;1.05;0.73;;;;;;;;;;5026588;27;92397;-62
2022/01/05 03:00:16;;;;;;;2.10;0.70;;;;;;;;;;5012540;28;92343;-62
2022/01/05 03:02:43;;;;;;;1.20;0.70;;;;;;;;;;5021882;27;96317;-61
2022/01/05 03:05:10;;;;;;;0.50;0.50;;;;;;;;;;5027365;27;92769;-62
2022/01/05 03:07:40;;;;;;;1.58;0.55;;;;;;;;;;5030408;28;92390;-62
2022/01/05 03:10:07;;;;;;;1.00;0.57;;;;;;;;;;5031361;27;92621;-61
2022/01/05 03:12:33;;;;;;;0.55;0.55;;;;;;;;;;5032363;27;92521;-62
2022/01/05 03:15:00;;;;;;;0.90;0.63;;;;;;;;;;5022193;27;93307;-61
2022/01/05 03:17:26;;;;;;;1.33;0.70;;;;;;;;;;5035486;27;92396;-61
2022/01/05 03:19:52;;;;;;;0.90;0.60;;;;;;;;;;5026233;27;92162;-61
2022/01/05 03:22:18;;;;;;;0.80;0.68;;;;;;;;;;5012546;28;94427;-61
2022/01/05 03:24:45;;;;;;;1.33;0.60;;;;;;;;;;5022619;28;92537;-62
2022/01/05 03:27:11;;;;;;;0.57;0.50;;;;;;;;;;5010386;28;94820;-61
2022/01/05 03:29:37;;;;;;;0.90;0.70;;;;;;;;;;5010626;28;93231;-62
2022/01/05 03:32:04;;;;;;;0.57;0.50;;;;;;;;;;5012196;28;92422;-62
2022/01/05 03:34:32;;;;;;;0.50;0.43;;;;;;;;;;5011658;28;92406;-61
2022/01/05 03:36:59;;;;;;;1.30;0.70;;;;;;;;;;5013376;28;94262;-62
2022/01/05 03:39:26;;;;;;;0.95;0.63;;;;;;;;;;5015313;28;92477;-62
2022/01/05 03:41:52;;;;;;;0.57;0.50;;;;;;;;;;5012754;28;94432;-61
2022/01/05 03:44:18;;;;;;;0.52;0.52;;;;;;;;;;5024686;28;91710;-61
2022/01/05 03:46:45;;;;;;;1.08;0.50;;;;;;;;;;5030765;27;92685;-62
2022/01/05 03:49:11;;;;;;;1.20;0.50;;;;;;;;;;5018352;27;92761;-62
2022/01/05 03:51:37;;;;;;;1.63;0.50;;;;;;;;;;5015427;28;94798;-61
2022/01/05 03:54:03;;;;;;;0.60;0.52;;;;;;;;;;5027178;28;94226;-62
2022/01/05 03:56:30;;;;;;;1.67;0.77;;;;;;;;;;5031512;27;92579;-61
2022/01/05 03:58:56;;;;;;;0.73;0.50;;;;;;;;;;5025824;27;92483;-62
2022/01/05 04:01:22;;;;;;;0.60;0.40;;;;;;;;;;5034579;27;93104;-62
2022/01/05 04:03:49;;;;;;;1.17;0.40;;;;;;;;;;5028876;27;92997;-61
2022/01/05 04:06:15;;;;;;;0.55;0.40;;;;;;;;;;5012788;28;92572;-62
2022/01/05 04:08:41;;;;;;;2.33;0.70;;;;;;;;;;5020083;28;92409;-62
2022/01/05 04:11:07;;;;;;;0.40;0.40;;;;;;;;;;5022959;27;92454;-62
2022/01/05 04:13:34;;;;;;;0.98;0.40;;;;;;;;;;5025192;27;92949;-62
2022/01/05 04:16:00;;;;;;;1.85;0.60;;;;;;;;;;5009542;28;94877;-61
2022/01/05 04:18:27;;;;;;;1.17;0.50;;;;;;;;;;5022713;28;93521;-62
2022/01/05 04:20:53;;;;;;;1.17;0.65;;;;;;;;;;5012548;28;93211;-61
2022/01/05 04:23:19;;;;;;;0.98;0.50;;;;;;;;;;5027524;28;92473;-61
2022/01/05 04:25:45;;;;;;;2.85;0.80;;;;;;;;;;5031341;27;92343;-61
2022/01/05 04:28:12;;;;;;;1.70;0.70;;;;;;;;;;5015602;27;93187;-62
2022/01/05 04:30:38;;;;;;;1.13;0.73;;;;;;;;;;5024287;27;92467;-62
2022/01/05 04:33:04;;;;;;;1.00;0.55;;;;;;;;;;5011405;28;92921;-62
2022/01/05 04:35:51;;;;;;;0.80;0.70;;;;;;;;;;5012839;28;93228;-62
2022/01/05 04:38:17;;;;;;;0.90;0.70;;;;;;;;;;5016018;28;92802;-62
2022/01/05 04:40:43;;;;;;;0.90;0.75;;;;;;;;;;5031242;27;95020;-62
2022/01/05 04:43:10;;;;;;;0.77;0.77;;;;;;;;;;5035101;27;92468;-61
2022/01/05 04:45:36;;;;;;;0.70;0.60;;;;;;;;;;5035906;27;92405;-61
2022/01/05 04:48:03;;;;;;;1.48;0.60;;;;;;;;;;5030878;27;92342;-62
2022/01/05 04:50:29;;;;;;;0.52;0.52;;;;;;;;;;5030606;28;92448;-61
2022/01/05 04:52:56;;;;;;;0.80;0.80;;;;;;;;;;5014955;28;93955;-61
2022/01/05 04:55:22;;;;;;;1.33;0.80;;;;;;;;;;5014571;28;92486;-62
2022/01/05 04:57:48;;;;;;;1.33;0.80;;;;;;;;;;5016437;28;91561;-62
2022/01/05 05:00:15;;;;;;;0.90;0.55;;;;;;;;;;5033171;28;92370;-61
2022/01/05 05:02:41;;;;;;;1.27;0.70;;;;;;;;;;5027578;27;93058;-62
2022/01/05 05:05:07;;;;;;;0.93;0.60;;;;;;;;;;5015871;28;94753;-62
2022/01/05 05:07:34;;;;;;;2.20;1.08;;;;;;;;;;5015139;28;92386;-62
2022/01/05 05:10:03;;;;;;;1.25;0.60;;;;;;;;;;5031251;28;92863;-61
2022/01/05 05:12:29;;;;;;;2.00;0.80;;;;;;;;;;5034624;27;92291;-62
2022/01/05 05:14:56;;;;;;;0.98;0.50;;;;;;;;;;5033350;27;92363;-62
2022/01/05 05:17:22;;;;;;;1.33;0.57;;;;;;;;;;5032951;27;92489;-62
2022/01/05 05:19:48;;;;;;;0.70;0.50;;;;;;;;;;5021119;27;92465;-62
2022/01/05 05:22:14;;;;;;;0.95;0.63;;;;;;;;;;5014599;28;93812;-62
2022/01/05 05:24:41;;;;;;;1.48;0.50;;;;;;;;;;5014250;28;92463;-62
2022/01/05 05:27:07;;;;;;;0.70;0.50;;;;;;;;;;5017349;28;94035;-62
2022/01/05 05:29:33;;;;;;;0.73;0.50;;;;;;;;;;5024945;28;94901;-62
2022/01/05 05:32:00;;;;;;;1.15;0.65;;;;;;;;;;5033370;27;95488;-62
2022/01/05 05:34:26;;;;;;;1.10;0.50;;;;;;;;;;5017874;27;93448;-61
2022/01/05 05:36:52;;;;;;;1.50;0.63;;;;;;;;;;5016661;28;92467;-62
2022/01/05 05:39:18;;;;;;;0.63;0.50;;;;;;;;;;5022805;27;92506;-61
2022/01/05 05:41:45;;;;;;;1.67;0.73;;;;;;;;;;5014112;28;93234;-61
2022/01/05 05:44:11;;;;;;;1.42;0.47;;;;;;;;;;5014633;28;92392;-62
2022/01/05 05:46:37;;;;;;;1.00;0.60;;;;;;;;;;5013999;28;91641;-62
2022/01/05 05:49:03;;;;;;;1.05;0.50;;;;;;;;;;5020555;28;93472;-62
2022/01/05 05:51:30;;;;;;;0.73;0.50;;;;;;;;;;5020065;27;92920;-62
2022/01/05 05:53:56;;;;;;;1.02;0.57;;;;;;;;;;5024193;28;95843;-62
2022/01/05 05:56:22;;;;;;;1.75;0.60;;;;;;;;;;5033619;27;92848;-62
2022/01/05 05:58:49;;;;;;;2.58;0.73;;;;;;;;;;5024379;27;92941;-61
2022/01/05 06:01:15;;;;;;;1.15;0.60;;;;;;;;;;5032848;27;93120;-62
2022/01/05 06:03:42;;;;;;;0.80;0.40;;;;;;;;;;5031703;27;92770;-62
2022/01/05 06:06:08;;;;;;;1.58;0.70;;;;;;;;;;5033529;27;93102;-62
2022/01/05 06:08:39;;;;;;;1.48;0.70;;;;;;;;;;5027345;27;93436;-62
2022/01/05 06:11:06;;;;;;;2.67;0.50;;;;;;;;;;5016801;28;91590;-62
2022/01/05 06:13:32;;;;;;;1.67;0.95;;;;;;;;;;5014320;28;93390;-62
2022/01/05 06:15:59;;;;;;;1.48;0.70;;;;;;;;;;5013343;28;93369;-62
2022/01/05 06:18:25;;;;;;;1.05;0.50;;;;;;;;;;5013252;28;94756;-62
2022/01/05 06:20:52;;;;;;;0.70;0.70;;;;;;;;;;5029480;27;92863;-62
2022/01/05 06:23:18;;;;;;;0.63;0.52;;;;;;;;;;5033244;27;92362;-62
2022/01/05 06:25:44;;;;;;;0.70;0.47;;;;;;;;;;5033569;27;94184;-62
2022/01/05 06:28:11;;;;;;;0.60;0.57;;;;;;;;;;5031657;27;92579;-62
2022/01/05 06:30:40;;;;;;;1.40;0.68;;;;;;;;;;5013573;27;92439;-62
2022/01/05 06:33:07;;;;;;;0.73;0.60;;;;;;;;;;5016021;28;92363;-62
2022/01/05 06:35:33;;;;;;;2.10;0.88;;;;;;;;;;5014935;28;91756;-62
2022/01/05 06:38:00;;;;;;;2.05;0.82;;;;;;;;;;5013502;28;92445;-62
2022/01/05 06:40:26;;;;;;;0.98;0.55;;;;;;;;;;5027528;28;93443;-62
2022/01/05 06:42:53;;;;;;;1.42;0.60;;;;;;;;;;5031732;27;94949;-61
2022/01/05 06:45:19;;;;;;;0.60;0.60;;;;;;;;;;5033102;27;95235;-62
2022/01/05 06:47:45;;;;;;;0.65;0.50;;;;;;;;;;5030692;27;93501;-62
2022/01/05 06:50:12;;;;;;;0.68;0.45;;;;;;;;;;5022308;27;93486;-62
2022/01/05 06:52:39;;;;;;;1.63;0.60;;;;;;;;;;5022035;28;93029;-62
2022/01/05 06:55:06;;;;;;;1.80;0.88;;;;;;;;;;5020820;28;92351;-62
2022/01/05 06:57:32;;;;;;;1.08;0.80;;;;;;;;;;5027824;27;93037;-62
2022/01/05 06:59:59;;;;;;;1.00;0.70;;;;;;;;;;5014305;28;92807;-62
2022/01/05 07:02:25;;;;;;;1.70;0.65;;;;;;;;;;5013596;28;92378;-62
2022/01/05 07:04:52;;;;;;;1.17;0.70;;;;;;;;;;5025477;28;92866;-62
2022/01/05 07:07:18;;;;;;;0.75;0.65;;;;;;;;;;5028944;27;95737;-62
2022/01/05 07:09:45;;;;;;;2.53;0.70;;;;;;;;;;5031174;27;92429;-62
2022/01/05 07:12:11;;;;;;;0.35;0.35;;;;;;;;;;5031362;27;93156;-61
2022/01/05 07:14:37;;;;;;;1.17;0.63;;;;;;;;;;5021730;27;93606;-62
2022/01/05 07:17:04;;;;;;;2.30;0.60;;;;;;;;;;5012723;28;93120;-62
2022/01/05 07:19:30;;;;;;;0.93;0.60;;;;;;;;;;5022332;28;93087;-62
2022/01/05 07:21:57;;;;;;;1.50;0.70;;;;;;;;;;5019603;27;93494;-62
2022/01/05 07:24:23;;;;;;;1.27;0.70;;;;;;;;;;5025301;28;91922;-62
2022/01/05 07:26:49;;;;;;;1.15;0.47;;;;;;;;;;5028712;27;92336;-62
2022/01/05 07:29:17;;;;;;;0.60;0.50;;;;;;;;;;5029543;27;92502;-62
2022/01/05 07:31:45;;;;;;;1.33;0.57;;;;;;;;;;5023526;28;94792;-62
2022/01/05 07:34:11;;;;;;;0.95;0.60;;;;;;;;;;5017514;27;94103;-62
2022/01/05 07:36:38;;;;;;;1.73;0.77;;;;;;;;;;5014956;28;92399;-61
2022/01/05 07:39:07;;;;;;;2.08;0.93;;;;;;;;;;5011709;28;93436;-62
2022/01/05 07:41:34;;;;;;;0.75;0.75;;;;;;;;;;5010353;28;92426;-61
2022/01/05 07:44:01;;;;;;;0.60;0.60;;;;;;;;;;5011908;28;92290;-62
2022/01/05 07:46:27;;;;;;;0.77;0.60;;;;;;;;;;5012317;28;92979;-62
2022/01/05 07:48:54;;;;;;;0.65;0.60;;;;;;;;;;5013894;28;92055;-62
2022/01/05 07:51:20;;;;;;;0.80;0.57;;;;;;;;;;5016951;28;92411;-62
2022/01/05 07:53:46;;;;;;;1.88;0.88;;;;;;;;;;5012188;28;94235;-62
2022/01/05 07:56:13;;;;;;;1.35;0.88;;;;;;;;;;5009365;28;95080;-62
2022/01/05 07:58:40;;;;;;;0.50;0.50;;;;;;;;;;5023890;28;94362;-62
2022/01/05 08:01:06;;;;;;;0.55;0.50;;;;;;;;;;5019801;27;92467;-61
2022/01/05 08:03:33;;;;;;;1.88;1.00;;;;;;;;;;5011509;28;94219;-61
2022/01/05 08:06:18;;;;;;;1.23;0.70;;;;;;;;;;5011279;28;92553;-62
2022/01/05 08:08:44;;;;;;;0.90;0.60;;;;;;;;;;5011587;28;93200;-61
2022/01/05 08:11:11;;;;;;;1.35;0.70;;;;;;;;;;5011123;28;92988;-62
2022/01/05 08:13:38;;;;;;;0.90;0.63;;;;;;;;;;5011427;28;91782;-62
2022/01/05 08:16:04;;;;;;;0.80;0.52;;;;;;;;;;5016261;27;93225;-62
2022/01/05 08:18:31;;;;;;;1.25;0.68;;;;;;;;;;5015456;28;92313;-62
2022/01/05 08:20:57;;;;;;;1.90;0.93;;;;;;;;;;5019710;28;95480;-62
2022/01/05 08:23:23;;;;;;;1.05;0.73;;;;;;;;;;5014439;28;95528;-62
2022/01/05 08:25:50;;;;;;;1.23;0.70;;;;;;;;;;5032899;28;92438;-62
2022/01/05 08:28:17;;;;;;;1.67;0.70;;;;;;;;;;5034414;27;92487;-62
2022/01/05 08:30:44;;;;;;;2.78;0.70;;;;;;;;;;5033475;27;92393;-62
2022/01/05 08:33:10;;;;;;;1.02;0.52;;;;;;;;;;5026850;27;93638;-62
2022/01/05 08:35:37;;;;;;;2.13;0.88;;;;;;;;;;5013622;28;92423;-62
2022/01/05 08:38:03;;;;;;;1.45;0.60;;;;;;;;;;5015108;28;91983;-62
2022/01/05 08:40:30;;;;;;;2.30;0.88;;;;;;;;;;5014181;28;92743;-62
2022/01/05 08:42:57;;;;;;;1.30;0.60;;;;;;;;;;5005168;28;92564;-62
2022/01/05 08:45:24;;;;;;;1.70;0.77;;;;;;;;;;5020385;28;95851;-61
2022/01/05 08:47:51;;;;;;;1.15;0.68;;;;;;;;;;5014989;28;92672;-62
2022/01/05 08:50:20;;;;;;;2.28;0.88;;;;;;;;;;5013384;28;92923;-62
2022/01/05 08:52:46;;;;;;;2.15;1.00;;;;;;;;;;5003056;28;92419;-64
2022/01/05 08:55:14;;;;;;;1.90;1.10;;;;;;;;;;5013478;28;92851;-63
2022/01/05 08:57:42;;;;;;;1.90;1.00;;;;;;;;;;5014134;28;92484;-65
2022/01/05 09:00:09;;;;;;;1.98;1.02;;;;;;;;;;5016542;27;93236;-63
2022/01/05 09:02:35;;;;;;;1.67;0.82;;;;;;;;;;5016370;28;91700;-62
2022/01/05 09:05:03;;;;;;;2.47;1.10;;;;;;;;;;5037085;27;94772;-62
2022/01/05 09:07:29;;;;;;;4.53;1.25;;;;;;;;;;5033800;27;92432;-62
2022/01/05 09:09:55;;;;;;;7.03;1.38;;;;;;;;;;5012014;28;94787;-62
2022/01/05 09:12:22;;;;;;;3.33;1.20;;;;;;;;;;5021283;28;92285;-62
2022/01/05 09:14:48;;;;;;;2.63;1.10;;;;;;;;;;5034076;28;92414;-62
2022/01/05 09:17:20;;;;;;;3.42;1.48;;;;;;;;;;5034671;27;93037;-62
2022/01/05 09:19:46;;;;;;;3.90;1.00;;;;;;;;;;5016151;27;93271;-61
2022/01/05 09:22:12;;;;;;;4.43;1.10;;;;;;;;;;5014395;28;92398;-62
2022/01/05 09:24:48;;;;;;;2.85;0.85;;;;;;;;;;5017220;28;93088;-61
2022/01/05 09:27:16;;;;;;;3.70;1.30;;;;;;;;;;5013347;28;91722;-62
2022/01/05 09:29:42;;;;;;;2.47;1.05;;;;;;;;;;5013921;28;92287;-62
2022/01/05 09:32:09;;;;;;;1.83;1.13;;;;;;;;;;5013515;28;93413;-62
2022/01/05 09:34:36;;;;;;;1.92;0.90;;;;;;;;;;5012445;28;94867;-62
2022/01/05 09:37:10;;;;;;;2.78;1.40;;;;;;;;;;5013272;28;94146;-62
2022/01/05 09:42:22;;;;;;;2.28;0.98;;;;;;;;;;5014972;28;92321;-61
2022/01/05 09:44:49;;;;;;;2.25;0.93;;;;;;;;;;5014261;28;93428;-62
2022/01/05 09:47:32;;;;;;;2.35;1.00;;;;;;;;;;5016955;28;93493;-62
2022/01/05 09:50:00;;;;;;;2.63;1.10;;;;;;;;;;5013769;28;92336;-62
2022/01/05 09:52:26;;;;;;;2.50;1.23;;;;;;;;;;5014223;28;91602;-62
2022/01/05 09:54:53;;;;;;;3.17;0.80;;;;;;;;;;5014366;28;92425;-62
2022/01/05 09:57:21;;;;;;;1.63;0.60;;;;;;;;;;5014067;28;94151;-61
2022/01/05 09:59:47;;;;;;;4.38;1.05;;;;;;;;;;5012331;28;95830;-61
2022/01/05 10:02:14;;;;;;;1.65;0.93;;;;;;;;;;5014026;28;93279;-62
2022/01/05 10:04:41;;;;;;;2.10;0.90;;;;;;;;;;5013687;28;92322;-62
2022/01/05 10:07:08;;;;;;;9.52;1.15;;;;;;;;;;5013208;28;93381;-62
2022/01/05 10:09:36;;;;;;;3.70;1.02;;;;;;;;;;5016301;28;92557;-62
2022/01/05 10:12:02;;;;;;;1.35;0.88;;;;;;;;;;5013485;28;93609;-62
2022/01/05 10:14:29;;;;;;;2.97;0.90;;;;;;;;;;5013730;28;92413;-62
2022/01/05 10:16:59;;;;;;;1.67;0.95;;;;;;;;;;5013790;28;93362;-62
2022/01/05 10:19:26;;;;;;;2.92;1.20;;;;;;;;;;5013129;28;93415;-61
2022/01/05 10:21:52;;;;;;;1.52;0.77;;;;;;;;;;5013895;28;92481;-62
2022/01/05 10:24:38;;;;;;;2.80;1.05;;;;;;;;;;5011430;28;94748;-61
2022/01/05 10:27:05;;;;;;;3.53;1.08;;;;;;;;;;5013256;28;92369;-61
2022/01/05 10:29:31;;;;;;;2.45;1.27;;;;;;;;;;5011466;28;92530;-62
2022/01/05 10:31:59;;;;;;;1.80;0.93;;;;;;;;;;5015906;28;93225;-61
2022/01/05 10:34:28;;;;;;;3.13;1.08;;;;;;;;;;5012982;28;92722;-62
2022/01/05 10:36:56;;;;;;;1.23;0.82;;;;;;;;;;5013346;28;92494;-62
2022/01/05 10:39:30;;;;;;;1.88;1.05;;;;;;;;;;5013103;28;93423;-62
2022/01/05 10:42:11;;;;;;;2.72;1.20;;;;;;;;;;5013689;28;91977;-62
2022/01/05 10:44:38;;;;;;;3.50;0.82;;;;;;;;;;5013072;28;92588;-62
2022/01/05 10:47:07;;;;;;;3.17;1.33;;;;;;;;;;5028060;28;92389;-61
2022/01/05 10:49:38;;;;;;;2.53;1.00;;;;;;;;;;5010498;28;94757;-62
2022/01/05 10:52:19;;;;;;;2.78;1.25;;;;;;;;;;5013040;28;96585;-61
2022/01/05 10:54:46;;;;;;;2.63;0.80;;;;;;;;;;5023289;28;92465;-61
2022/01/05 10:57:15;;;;;;;2.90;1.00;;;;;;;;;;5022314;28;92504;-59
2022/01/05 10:59:45;;;;;;;1.58;0.90;;;;;;;;;;5011630;28;93299;-61
2022/01/05 11:02:11;;;;;;;;;;;;;;;;;;5012832;28;92497;-62
2022/01/05 11:04:38;;;;;;;2.88;1.10;;;;;;;;;;5012557;28;124009;-61
2022/01/05 11:07:04;;;;;;;2.25;0.90;;;;;;;;;;5012894;28;93504;-61
2022/01/05 11:09:31;;;;;;;2.47;1.00;;;;;;;;;;5012035;28;92482;-61
2022/01/05 11:11:58;;;;;;;2.15;0.95;;;;;;;;;;5012965;28;92523;-61
2022/01/05 11:14:30;;;;;;;2.40;0.95;;;;;;;;;;5024879;27;94945;-62
2022/01/05 11:16:58;;;;;;;2.72;1.13;;;;;;;;;;5016834;28;92340;-62
2022/01/05 11:19:27;;;;;;;2.05;1.10;;;;;;;;;;5021998;27;93719;-61
2022/01/05 11:21:58;;;;;;;2.25;1.00;;;;;;;;;;5012804;28;92431;-62
2022/01/05 11:24:25;;;;;;;2.35;0.70;;;;;;;;;;5012495;28;93044;-62
2022/01/05 11:26:52;;;;;;;1.63;0.90;;;;;;;;;;5012102;28;92719;-62
2022/01/05 11:29:19;;;;;;;3.13;1.00;;;;;;;;;;5012086;28;92378;-61
2022/01/05 11:31:45;;;;;;;4.38;1.08;;;;;;;;;;5013089;28;91864;-62
2022/01/05 11:34:12;;;;;;;5.00;1.00;;;;;;;;;;5011609;28;93994;-62
2022/01/05 11:36:39;;;;;;;2.13;1.00;;;;;;;;;;5015407;28;92445;-61
2022/01/05 11:39:06;;;;;;;2.70;0.93;;;;;;;;;;5010329;28;94774;-62
2022/01/05 11:41:35;;;;;;;2.88;1.10;;;;;;;;;;5012040;28;92958;-61
2022/01/05 11:44:04;;;;;;;1.58;0.95;;;;;;;;;;5012051;28;94119;-62
2022/01/05 11:46:30;;;;;;;3.28;1.10;;;;;;;;;;5011764;28;93578;-61
2022/01/05 11:48:57;;;;;;;2.30;1.00;;;;;;;;;;5011219;28;93467;-61
2022/01/05 11:51:41;;;;;;;1.90;1.10;;;;;;;;;;5012491;28;93482;-61
2022/01/05 11:54:16;;;;;;;2.17;1.05;;;;;;;;;;5011846;28;93220;-61
2022/01/05 11:56:51;;;;;;;2.40;0.90;;;;;;;;;;5012468;28;91702;-62
2022/01/05 11:59:33;;;;;;;1.45;0.90;;;;;;;;;;5014983;28;93629;-62
2022/01/05 12:02:08;;;;;;;2.30;1.17;;;;;;;;;;5011195;28;92428;-62
2022/01/05 12:04:56;;;;;;;2.08;0.90;;;;;;;;;;5010063;28;94712;-62
2022/01/05 12:07:36;;;;;;;1.17;0.60;;;;;;;;;;5011864;28;94495;-61
2022/01/05 12:13:03;;;;;;;1.95;0.90;;;;;;;;;;5002340;28;92376;-62
2022/01/05 12:15:52;;;;;;;1.05;0.85;;;;;;;;;;5011298;28;93631;-62
2022/01/05 12:18:20;;;;;;;1.30;0.75;;;;;;;;;;5011355;28;92520;-61
2022/01/05 12:20:47;;;;;;;3.15;1.23;;;;;;;;;;5012094;28;93942;-61
2022/01/05 12:23:15;;;;;;;1.20;0.80;;;;;;;;;;5015301;28;92470;-62
2022/01/05 12:25:59;;;;;;;2.20;0.90;;;;;;;;;;5013417;27;92400;-62
2022/01/05 12:28:27;;;;;;;2.05;1.00;;;;;;;;;;5024110;27;93514;-62
2022/01/05 12:30:53;;;;;;;1.70;0.80;;;;;;;;;;5008814;28;94853;-61
2022/01/05 12:33:20;;;;;;;2.33;1.02;;;;;;;;;;5013289;28;95048;-62
2022/01/05 12:36:04;;;;;;;1.20;0.80;;;;;;;;;;5012821;28;93252;-61
2022/01/05 12:38:30;;;;;;;2.60;0.82;;;;;;;;;;5011435;28;92357;-62
2022/01/05 12:40:57;;;;;;;1.52;0.80;;;;;;;;;;5011142;28;92452;-62
2022/01/05 12:43:28;;;;;;;2.40;0.90;;;;;;;;;;5011243;28;92478;-62
2022/01/05 12:45:59;;;;;;;8.60;1.27;;;;;;;;;;5020930;28;92371;-60
2022/01/05 12:48:25;;;;;;;;;;;;;;;;;;5032234;27;91674;-61
2022/01/05 12:50:51;;;;;;;1.60;0.75;;;;;;;;;;5012497;28;117882;-62
2022/01/05 12:53:33;;;;;;;1.98;0.93;;;;;;;;;;5014755;28;92244;-62
2022/01/05 12:56:00;;;;;;;2.55;0.80;;;;;;;;;;4989221;28;95429;-62
2022/01/05 12:58:32;;;;;;;2.70;1.23;;;;;;;;;;5001768;28;92505;-61
2022/01/05 13:00:59;;;;;;;1.40;0.70;;;;;;;;;;5012190;28;92393;-61
2022/01/05 13:03:32;;;;;;;2.85;1.05;;;;;;;;;;5014277;28;92377;-61
2022/01/05 13:06:19;;;;;;;2.15;0.95;;;;;;;;;;5014391;28;92480;-62
2022/01/05 13:08:49;;;;;;;2.53;0.90;;;;;;;;;;5018765;28;92412;-62
2022/01/05 13:11:40;;;;;;;3.70;0.88;;;;;;;;;;5023233;28;92468;-61
2022/01/05 13:14:09;;;;;;;2.30;0.93;;;;;;;;;;4994546;28;94261;-61
2022/01/05 13:16:35;;;;;;;1.27;0.70;;;;;;;;;;5015154;28;93380;-62
2022/01/05 13:19:02;;;;;;;2.75;0.80;;;;;;;;;;5014571;28;92395;-61
2022/01/05 13:21:42;;;;;;;1.20;0.88;;;;;;;;;;5018373;28;94918;-61
2022/01/05 13:24:08;;;;;;;1.45;0.82;;;;;;;;;;4999821;27;92493;-62
2022/01/05 13:26:34;;;;;;;1.50;0.80;;;;;;;;;;5032907;28;92403;-62
2022/01/05 13:29:19;;;;;;;2.10;1.02;;;;;;;;;;5036408;27;92286;-61
2022/01/05 13:31:53;;;;;;;1.38;1.00;;;;;;;;;;5034177;27;92359;-62
2022/01/05 13:34:27;;;;;;;2.30;1.08;;;;;;;;;;5032744;27;94542;-61
2022/01/05 13:36:53;;;;;;;1.63;0.98;;;;;;;;;;5033739;27;92447;-62
2022/01/05 13:39:39;;;;;;;2.13;1.02;;;;;;;;;;5014590;28;91656;-61
2022/01/05 13:42:06;;;;;;;1.55;1.10;;;;;;;;;;5015027;28;92425;-61
2022/01/05 13:44:33;;;;;;;2.65;1.08;;;;;;;;;;5031797;28;93357;-62
2022/01/05 13:47:02;;;;;;;3.00;1.20;;;;;;;;;;5032077;27;94832;-62
2022/01/05 13:49:28;;;;;;;1.98;0.82;;;;;;;;;;5013489;28;95682;-61
2022/01/05 13:52:05;;;;;;;2.10;0.98;;;;;;;;;;5016905;28;94414;-62
2022/01/05 13:54:35;;;;;;;1.40;0.70;;;;;;;;;;5014786;28;93510;-62
2022/01/05 13:57:02;;;;;;;1.50;0.77;;;;;;;;;;5013169;28;92721;-62
2022/01/05 13:59:42;;;;;;;3.00;1.20;;;;;;;;;;4993738;28;92774;-61
2022/01/05 14:02:09;;;;;;;0.82;0.63;;;;;;;;;;5011100;28;93244;-62
2022/01/05 14:04:52;;;;;;;1.38;0.80;;;;;;;;;;5031434;28;93805;-62
2022/01/05 14:07:19;;;;;;;3.10;0.98;;;;;;;;;;5030105;27;92616;-61
2022/01/05 14:10:01;;;;;;;1.73;1.15;;;;;;;;;;5013587;28;93075;-62
2022/01/05 14:12:31;;;;;;;2.28;1.17;;;;;;;;;;5010311;28;95848;-62
2022/01/05 14:14:58;;;;;;;1.25;1.08;;;;;;;;;;4996469;28;92345;-62
2022/01/05 14:17:25;;;;;;;1.23;0.80;;;;;;;;;;5012574;28;92270;-62
2022/01/05 14:20:11;;;;;;;1.75;0.82;;;;;;;;;;5014029;28;92331;-62
2022/01/05 14:22:37;;;;;;;3.50;1.00;;;;;;;;;;5014792;28;93248;-62
2022/01/05 14:25:04;;;;;;;2.00;0.80;;;;;;;;;;5033120;27;92299;-62
2022/01/05 14:27:34;;;;;;;2.45;1.15;;;;;;;;;;5032362;27;92418;-61
2022/01/05 14:30:02;;;;;;;2.03;0.93;;;;;;;;;;5033453;27;91845;-62
2022/01/05 14:32:36;;;;;;;0.65;0.65;;;;;;;;;;5032822;27;93136;-62
2022/01/05 14:35:10;;;;;;;1.90;0.75;;;;;;;;;;5013108;28;92403;-62
2022/01/05 14:37:53;;;;;;;1.77;0.82;;;;;;;;;;5046679;27;94733;-62
2022/01/05 14:40:23;;;;;;;0.65;0.65;;;;;;;;;;5013532;28;92967;-62
2022/01/05 14:42:53;;;;;;;1.77;1.10;;;;;;;;;;5022907;28;92508;-62
2022/01/05 14:45:21;;;;;;;2.67;1.00;;;;;;;;;;5013217;28;92364;-61
2022/01/05 14:47:47;;;;;;;1.33;0.50;;;;;;;;;;5013113;28;92508;-62
2022/01/05 14:50:14;;;;;;;1.30;0.90;;;;;;;;;;5015899;28;92527;-61
2022/01/05 14:52:43;;;;;;;1.88;0.85;;;;;;;;;;5011809;27;93436;-62
2022/01/05 14:55:10;;;;;;;0.82;0.70;;;;;;;;;;5014266;28;91856;-61
2022/01/05 14:57:36;;;;;;;2.00;0.80;;;;;;;;;;5018630;28;92261;-61